RYR5BC LIBD-LICJ
Flight info
| Callsign | RYR5BC |
|---|---|
| Flight time | 0h 56m |
| Altitude | 31000 |
| Route | TOPNO DCT BUMOK DCT KUTID DCT AMANO M742 ROSAS |
| Aircraft | B738/M-SDE3FGILRWY/SB1 |
Departure
| Time | 2026-04-26 14:28 |
|---|---|
| Airport | Bari Karol Wojtyła International Airport (LIBD) |
Arrival
| Time | 2026-04-26 15:24 |
|---|---|
| Airport | Falcone–Borsellino Airport (LICJ) |
| Time | Latitude | Longitude | Altitude | Speed | Heading |
|---|---|---|---|---|---|
| 2026-04-26 13:55 | 41.13540 | 16.76402 | 135 ft | 0 kts | 159° |
| 2026-04-26 14:19 | 41.13546 | 16.76398 | 135 ft | 3 kts | 161° |
| 2026-04-26 14:19 | 41.13569 | 16.76390 | 135 ft | 3 kts | 169° |
| 2026-04-26 14:20 | 41.13592 | 16.76386 | 135 ft | 3 kts | 185° |
| 2026-04-26 14:20 | 41.13613 | 16.76393 | 135 ft | 3 kts | 222° |
| 2026-04-26 14:20 | 41.13620 | 16.76404 | 135 ft | 0 kts | 249° |
| 2026-04-26 14:23 | 41.13620 | 16.76403 | 135 ft | 1 kts | 249° |
| 2026-04-26 14:23 | 41.13610 | 16.76368 | 135 ft | 8 kts | 249° |
| 2026-04-26 14:23 | 41.13580 | 16.76265 | 135 ft | 14 kts | 249° |
| 2026-04-26 14:24 | 41.13552 | 16.76149 | 135 ft | 12 kts | 271° |
| 2026-04-26 14:24 | 41.13603 | 16.76062 | 135 ft | 12 kts | 320° |
| 2026-04-26 14:24 | 41.13636 | 16.75968 | 135 ft | 13 kts | 260° |
| 2026-04-26 14:24 | 41.13598 | 16.75825 | 137 ft | 20 kts | 249° |
| 2026-04-26 14:25 | 41.13546 | 16.75644 | 137 ft | 21 kts | 249° |
| 2026-04-26 14:25 | 41.13496 | 16.75465 | 142 ft | 20 kts | 249° |
| 2026-04-26 14:25 | 41.13447 | 16.75295 | 141 ft | 20 kts | 249° |
| 2026-04-26 14:25 | 41.13400 | 16.75127 | 145 ft | 19 kts | 249° |
| 2026-04-26 14:26 | 41.13354 | 16.74969 | 147 ft | 14 kts | 249° |
| 2026-04-26 14:26 | 41.13358 | 16.74852 | 146 ft | 13 kts | 299° |
| 2026-04-26 14:26 | 41.13407 | 16.74751 | 144 ft | 13 kts | 314° |
| 2026-04-26 14:26 | 41.13462 | 16.74701 | 141 ft | 7 kts | 28° |
| 2026-04-26 14:27 | 41.13496 | 16.74803 | 138 ft | 27 kts | 69° |
| 2026-04-26 14:27 | 41.13647 | 16.75336 | 140 ft | 96 kts | 69° |
| 2026-04-26 14:27 | 41.13953 | 16.76424 | 128 ft | 153 kts | 68° |
| 2026-04-26 14:27 | 41.14344 | 16.77848 | 624 ft | 164 kts | 68° |
| 2026-04-26 14:28 | 41.14734 | 16.79234 | 1443 ft | 163 kts | 67° |
| 2026-04-26 14:28 | 41.15172 | 16.80711 | 1797 ft | 185 kts | 65° |
| 2026-04-26 14:28 | 41.15663 | 16.82385 | 2084 ft | 207 kts | 66° |
| 2026-04-26 14:28 | 41.16197 | 16.84219 | 2493 ft | 217 kts | 66° |
| 2026-04-26 14:29 | 41.16744 | 16.86108 | 3064 ft | 221 kts | 66° |
| 2026-04-26 14:29 | 41.17299 | 16.88028 | 3706 ft | 227 kts | 66° |
| 2026-04-26 14:29 | 41.17997 | 16.90025 | 3969 ft | 247 kts | 51° |
| 2026-04-26 14:29 | 41.19284 | 16.91539 | 4592 ft | 249 kts | 26° |
| 2026-04-26 14:30 | 41.20348 | 16.92151 | 4949 ft | 255 kts | 14° |
| 2026-04-26 14:30 | 41.22723 | 16.91999 | 5756 ft | 262 kts | 344° |
| 2026-04-26 14:30 | 41.24497 | 16.91342 | 6446 ft | 267 kts | 344° |
| 2026-04-26 14:30 | 41.26278 | 16.90675 | 7160 ft | 270 kts | 344° |
| 2026-04-26 14:31 | 41.28055 | 16.89854 | 7913 ft | 272 kts | 329° |
| 2026-04-26 14:31 | 41.29421 | 16.88123 | 8667 ft | 275 kts | 302° |
| 2026-04-26 14:31 | 41.30073 | 16.85721 | 9449 ft | 281 kts | 278° |
| 2026-04-26 14:31 | 41.29936 | 16.83115 | 10208 ft | 287 kts | 259° |
| 2026-04-26 14:32 | 41.29418 | 16.80480 | 10584 ft | 306 kts | 256° |
| 2026-04-26 14:32 | 41.28801 | 16.77646 | 10807 ft | 328 kts | 255° |
| 2026-04-26 14:32 | 41.28156 | 16.74718 | 11319 ft | 338 kts | 255° |
| 2026-04-26 14:32 | 41.27499 | 16.71702 | 12054 ft | 341 kts | 255° |
| 2026-04-26 14:33 | 41.26847 | 16.68664 | 12843 ft | 343 kts | 255° |
| 2026-04-26 14:33 | 41.26191 | 16.65581 | 13608 ft | 348 kts | 255° |
| 2026-04-26 14:33 | 41.25534 | 16.62469 | 14348 ft | 351 kts | 256° |
| 2026-04-26 14:33 | 41.24881 | 16.59371 | 15163 ft | 351 kts | 256° |
| 2026-04-26 14:34 | 41.24220 | 16.56246 | 16022 ft | 351 kts | 256° |
| 2026-04-26 14:34 | 41.23485 | 16.53138 | 16824 ft | 353 kts | 248° |
| 2026-04-26 14:34 | 41.22108 | 16.50409 | 17591 ft | 359 kts | 232° |
| 2026-04-26 14:34 | 41.20444 | 16.47918 | 18381 ft | 361 kts | 230° |
| 2026-04-26 14:35 | 41.18738 | 16.45436 | 19000 ft | 365 kts | 230° |
| 2026-04-26 14:35 | 41.17011 | 16.42931 | 19627 ft | 369 kts | 230° |
| 2026-04-26 14:35 | 41.15289 | 16.40421 | 20229 ft | 373 kts | 230° |
| 2026-04-26 14:35 | 41.13536 | 16.37850 | 20851 ft | 376 kts | 230° |
| 2026-04-26 14:36 | 41.11777 | 16.35260 | 21440 ft | 380 kts | 231° |
| 2026-04-26 14:36 | 41.10000 | 16.32637 | 22004 ft | 384 kts | 231° |
| 2026-04-26 14:36 | 41.08202 | 16.29981 | 22559 ft | 388 kts | 231° |
| 2026-04-26 14:36 | 41.06417 | 16.27344 | 23119 ft | 391 kts | 231° |
| 2026-04-26 14:37 | 41.04584 | 16.24639 | 23682 ft | 395 kts | 230° |
| 2026-04-26 14:37 | 41.02733 | 16.21910 | 24133 ft | 398 kts | 230° |
| 2026-04-26 14:37 | 41.00866 | 16.19160 | 24574 ft | 402 kts | 230° |
| 2026-04-26 14:37 | 40.99012 | 16.16430 | 25026 ft | 405 kts | 230° |
| 2026-04-26 14:38 | 40.97121 | 16.13650 | 25475 ft | 408 kts | 230° |
| 2026-04-26 14:38 | 40.95216 | 16.10847 | 25956 ft | 409 kts | 231° |
| 2026-04-26 14:38 | 40.93432 | 16.07911 | 26545 ft | 406 kts | 236° |
| 2026-04-26 14:38 | 40.92337 | 16.05905 | 26966 ft | 404 kts | 237° |
| 2026-04-26 14:39 | 40.90221 | 16.01860 | 27731 ft | 403 kts | 237° |
| 2026-04-26 14:39 | 40.88626 | 15.98798 | 28265 ft | 404 kts | 237° |
| 2026-04-26 14:39 | 40.87017 | 15.95745 | 28767 ft | 405 kts | 237° |
| 2026-04-26 14:39 | 40.85389 | 15.92694 | 29340 ft | 404 kts | 236° |
| 2026-04-26 14:40 | 40.83758 | 15.89667 | 29939 ft | 402 kts | 236° |
| 2026-04-26 14:40 | 40.82130 | 15.86661 | 30456 ft | 402 kts | 236° |
| 2026-04-26 14:40 | 40.80523 | 15.83700 | 30891 ft | 401 kts | 236° |
| 2026-04-26 14:40 | 40.78886 | 15.80689 | 31089 ft | 402 kts | 236° |
| 2026-04-26 14:41 | 40.77260 | 15.77700 | 31090 ft | 399 kts | 236° |
| 2026-04-26 14:41 | 40.74557 | 15.72733 | 31116 ft | 401 kts | 236° |
| 2026-04-26 14:42 | 40.70724 | 15.65791 | 31112 ft | 404 kts | 233° |
| 2026-04-26 14:42 | 40.67736 | 15.61031 | 31112 ft | 405 kts | 231° |
| 2026-04-26 14:43 | 40.64068 | 15.55397 | 31118 ft | 404 kts | 231° |
| 2026-04-26 14:43 | 40.60430 | 15.49770 | 31114 ft | 403 kts | 231° |
| 2026-04-26 14:44 | 40.56815 | 15.44142 | 31123 ft | 401 kts | 231° |
| 2026-04-26 14:44 | 40.53230 | 15.38557 | 31125 ft | 400 kts | 231° |
| 2026-04-26 14:45 | 40.49638 | 15.32970 | 31132 ft | 399 kts | 231° |
| 2026-04-26 14:45 | 40.46070 | 15.27431 | 31134 ft | 399 kts | 231° |
| 2026-04-26 14:46 | 40.42481 | 15.21872 | 31134 ft | 399 kts | 231° |
| 2026-04-26 14:46 | 40.38800 | 15.16388 | 31144 ft | 400 kts | 229° |
| 2026-04-26 14:47 | 40.35047 | 15.11010 | 31144 ft | 402 kts | 229° |
| 2026-04-26 14:47 | 40.31263 | 15.05588 | 31141 ft | 403 kts | 229° |
| 2026-04-26 14:48 | 40.27479 | 15.00149 | 31139 ft | 403 kts | 229° |
| 2026-04-26 14:48 | 40.23703 | 14.94718 | 31136 ft | 403 kts | 229° |
| 2026-04-26 14:49 | 40.19952 | 14.89330 | 31133 ft | 402 kts | 229° |
| 2026-04-26 14:49 | 40.16182 | 14.83922 | 31141 ft | 401 kts | 229° |
| 2026-04-26 14:50 | 40.12417 | 14.78533 | 31150 ft | 401 kts | 229° |
| 2026-04-26 14:50 | 40.08668 | 14.73176 | 31154 ft | 401 kts | 228° |
| 2026-04-26 14:51 | 40.04901 | 14.67803 | 31149 ft | 401 kts | 229° |
| 2026-04-26 14:51 | 40.01123 | 14.62423 | 31145 ft | 401 kts | 228° |
| 2026-04-26 14:52 | 39.97369 | 14.57087 | 31144 ft | 401 kts | 228° |
| 2026-04-26 14:52 | 39.93592 | 14.51727 | 31149 ft | 401 kts | 228° |
| 2026-04-26 14:53 | 39.89813 | 14.46374 | 31144 ft | 401 kts | 228° |
| 2026-04-26 14:53 | 39.86063 | 14.41071 | 31153 ft | 400 kts | 228° |
| 2026-04-26 14:54 | 39.82272 | 14.35720 | 31149 ft | 400 kts | 228° |
| 2026-04-26 14:54 | 39.78519 | 14.30432 | 31155 ft | 400 kts | 228° |
| 2026-04-26 14:55 | 39.74739 | 14.25115 | 31150 ft | 400 kts | 228° |
| 2026-04-26 14:55 | 39.70955 | 14.19801 | 31151 ft | 400 kts | 228° |
| 2026-04-26 14:56 | 39.67166 | 14.14490 | 31153 ft | 400 kts | 228° |
| 2026-04-26 14:56 | 39.63398 | 14.09217 | 31143 ft | 397 kts | 228° |
| 2026-04-26 14:56 | 39.61533 | 14.06610 | 30970 ft | 391 kts | 227° |
| 2026-04-26 14:57 | 39.59694 | 14.04043 | 30748 ft | 384 kts | 228° |
| 2026-04-26 14:57 | 39.57879 | 14.01510 | 30400 ft | 382 kts | 227° |
| 2026-04-26 14:57 | 39.56094 | 13.99022 | 30051 ft | 379 kts | 227° |
| 2026-04-26 14:57 | 39.54302 | 13.96525 | 29661 ft | 376 kts | 227° |
| 2026-04-26 14:58 | 39.52527 | 13.94054 | 29297 ft | 372 kts | 227° |
| 2026-04-26 14:58 | 39.50763 | 13.91600 | 28897 ft | 370 kts | 227° |
| 2026-04-26 14:58 | 39.49016 | 13.89170 | 28524 ft | 367 kts | 227° |
| 2026-04-26 14:58 | 39.47304 | 13.86793 | 28175 ft | 364 kts | 227° |
| 2026-04-26 14:59 | 39.45584 | 13.84406 | 27818 ft | 361 kts | 227° |
| 2026-04-26 14:59 | 39.43867 | 13.82045 | 27465 ft | 359 kts | 225° |
| 2026-04-26 14:59 | 39.41930 | 13.80022 | 27117 ft | 357 kts | 213° |
| 2026-04-26 14:59 | 39.40513 | 13.78957 | 26893 ft | 355 kts | 206° |
| 2026-04-26 15:00 | 39.37444 | 13.77407 | 26437 ft | 352 kts | 200° |
| 2026-04-26 15:00 | 39.35134 | 13.76380 | 26095 ft | 350 kts | 199° |
| 2026-04-26 15:00 | 39.32855 | 13.75380 | 25760 ft | 349 kts | 199° |
| 2026-04-26 15:00 | 39.30561 | 13.74368 | 25422 ft | 347 kts | 199° |
| 2026-04-26 15:01 | 39.28285 | 13.73357 | 25090 ft | 345 kts | 199° |
| 2026-04-26 15:01 | 39.26008 | 13.72339 | 24752 ft | 344 kts | 199° |
| 2026-04-26 15:01 | 39.23771 | 13.71334 | 24424 ft | 343 kts | 200° |
| 2026-04-26 15:01 | 39.21524 | 13.70322 | 24095 ft | 342 kts | 199° |
| 2026-04-26 15:02 | 39.19275 | 13.69308 | 23746 ft | 341 kts | 199° |
| 2026-04-26 15:02 | 39.17036 | 13.68299 | 23366 ft | 340 kts | 199° |
| 2026-04-26 15:02 | 39.14805 | 13.67294 | 23002 ft | 339 kts | 199° |
| 2026-04-26 15:02 | 39.12586 | 13.66295 | 22655 ft | 336 kts | 200° |
| 2026-04-26 15:03 | 39.10381 | 13.65302 | 22323 ft | 334 kts | 199° |
| 2026-04-26 15:03 | 39.08189 | 13.64316 | 21991 ft | 332 kts | 200° |
| 2026-04-26 15:03 | 39.06033 | 13.63346 | 21668 ft | 330 kts | 199° |
| 2026-04-26 15:03 | 39.03865 | 13.62372 | 21343 ft | 328 kts | 200° |
| 2026-04-26 15:04 | 39.01710 | 13.61404 | 21021 ft | 326 kts | 200° |
| 2026-04-26 15:04 | 38.99568 | 13.60443 | 20706 ft | 325 kts | 199° |
| 2026-04-26 15:04 | 38.97434 | 13.59486 | 20387 ft | 323 kts | 199° |
| 2026-04-26 15:04 | 38.95343 | 13.58548 | 20083 ft | 321 kts | 199° |
| 2026-04-26 15:05 | 38.93237 | 13.57604 | 19760 ft | 320 kts | 199° |
| 2026-04-26 15:05 | 38.91817 | 13.56969 | 19552 ft | 319 kts | 200° |
| 2026-04-26 15:05 | 38.89046 | 13.55729 | 19142 ft | 318 kts | 200° |
| 2026-04-26 15:05 | 38.86963 | 13.54789 | 18829 ft | 316 kts | 202° |
| 2026-04-26 15:06 | 38.85075 | 13.53368 | 18504 ft | 315 kts | 221° |
| 2026-04-26 15:06 | 38.83626 | 13.51292 | 18182 ft | 312 kts | 235° |
| 2026-04-26 15:06 | 38.82423 | 13.48965 | 17847 ft | 311 kts | 237° |
| 2026-04-26 15:06 | 38.81262 | 13.46621 | 17515 ft | 310 kts | 238° |
| 2026-04-26 15:07 | 38.78985 | 13.42008 | 16887 ft | 306 kts | 237° |
| 2026-04-26 15:07 | 38.77841 | 13.39710 | 16584 ft | 305 kts | 237° |
| 2026-04-26 15:07 | 38.76694 | 13.37419 | 16294 ft | 303 kts | 237° |
| 2026-04-26 15:08 | 38.75555 | 13.35153 | 15975 ft | 302 kts | 237° |
| 2026-04-26 15:08 | 38.74434 | 13.32930 | 15682 ft | 300 kts | 237° |
| 2026-04-26 15:08 | 38.73303 | 13.30691 | 15378 ft | 299 kts | 237° |
| 2026-04-26 15:08 | 38.72175 | 13.28462 | 15077 ft | 298 kts | 237° |
| 2026-04-26 15:09 | 38.71049 | 13.26239 | 14783 ft | 296 kts | 237° |
| 2026-04-26 15:09 | 38.69927 | 13.24027 | 14480 ft | 295 kts | 237° |
| 2026-04-26 15:09 | 38.68807 | 13.21821 | 14192 ft | 294 kts | 237° |
| 2026-04-26 15:09 | 38.67690 | 13.19623 | 13886 ft | 294 kts | 237° |
| 2026-04-26 15:10 | 38.66579 | 13.17439 | 13551 ft | 293 kts | 237° |
| 2026-04-26 15:10 | 38.65844 | 13.15993 | 13341 ft | 292 kts | 237° |
| 2026-04-26 15:10 | 38.64366 | 13.13090 | 12929 ft | 290 kts | 237° |
| 2026-04-26 15:10 | 38.63282 | 13.10963 | 12625 ft | 288 kts | 237° |
| 2026-04-26 15:11 | 38.62186 | 13.08814 | 12334 ft | 287 kts | 237° |
| 2026-04-26 15:11 | 38.61098 | 13.06682 | 12045 ft | 285 kts | 237° |
| 2026-04-26 15:11 | 38.60014 | 13.04558 | 11747 ft | 284 kts | 237° |
| 2026-04-26 15:11 | 38.58948 | 13.02472 | 11461 ft | 283 kts | 237° |
| 2026-04-26 15:12 | 38.57874 | 13.00371 | 11178 ft | 282 kts | 237° |
| 2026-04-26 15:12 | 38.56800 | 12.98271 | 10881 ft | 281 kts | 237° |
| 2026-04-26 15:12 | 38.55730 | 12.96181 | 10595 ft | 280 kts | 237° |
| 2026-04-26 15:12 | 38.54666 | 12.94104 | 10324 ft | 278 kts | 237° |
| 2026-04-26 15:13 | 38.53616 | 12.92056 | 10198 ft | 271 kts | 237° |
| 2026-04-26 15:13 | 38.52592 | 12.90058 | 9914 ft | 271 kts | 237° |
| 2026-04-26 15:13 | 38.51544 | 12.88016 | 9539 ft | 280 kts | 237° |
| 2026-04-26 15:13 | 38.50472 | 12.85927 | 9216 ft | 282 kts | 237° |
| 2026-04-26 15:14 | 38.49392 | 12.83825 | 8912 ft | 282 kts | 237° |
| 2026-04-26 15:14 | 38.48319 | 12.81735 | 8614 ft | 280 kts | 237° |
| 2026-04-26 15:14 | 38.47261 | 12.79679 | 8326 ft | 279 kts | 237° |
| 2026-04-26 15:14 | 38.46194 | 12.77607 | 8044 ft | 278 kts | 237° |
| 2026-04-26 15:15 | 38.45135 | 12.75553 | 7749 ft | 276 kts | 237° |
| 2026-04-26 15:15 | 38.43950 | 12.73645 | 7449 ft | 276 kts | 219° |
| 2026-04-26 15:15 | 38.42225 | 12.72619 | 7178 ft | 275 kts | 190° |
| 2026-04-26 15:15 | 38.40331 | 12.72702 | 6912 ft | 274 kts | 165° |
| 2026-04-26 15:16 | 38.38579 | 12.73571 | 6651 ft | 273 kts | 155° |
| 2026-04-26 15:16 | 38.36861 | 12.74609 | 6335 ft | 273 kts | 154° |
| 2026-04-26 15:16 | 38.35147 | 12.75660 | 6042 ft | 273 kts | 154° |
| 2026-04-26 15:16 | 38.33439 | 12.76700 | 5759 ft | 272 kts | 154° |
| 2026-04-26 15:17 | 38.31729 | 12.77730 | 5488 ft | 270 kts | 155° |
| 2026-04-26 15:17 | 38.30604 | 12.78402 | 5304 ft | 269 kts | 155° |
| 2026-04-26 15:17 | 38.28380 | 12.79723 | 5091 ft | 260 kts | 155° |
| 2026-04-26 15:17 | 38.26751 | 12.80688 | 4972 ft | 257 kts | 155° |
| 2026-04-26 15:18 | 38.25129 | 12.81646 | 4871 ft | 258 kts | 155° |
| 2026-04-26 15:18 | 38.23476 | 12.82584 | 4707 ft | 262 kts | 157° |
| 2026-04-26 15:18 | 38.21790 | 12.83493 | 4583 ft | 262 kts | 157° |
| 2026-04-26 15:18 | 38.20101 | 12.84399 | 4313 ft | 265 kts | 157° |
| 2026-04-26 15:19 | 38.18407 | 12.85312 | 4047 ft | 264 kts | 157° |
| 2026-04-26 15:19 | 38.16721 | 12.86222 | 3785 ft | 261 kts | 157° |
| 2026-04-26 15:19 | 38.15094 | 12.87101 | 3540 ft | 253 kts | 156° |
| 2026-04-26 15:19 | 38.13513 | 12.87997 | 3253 ft | 245 kts | 149° |
| 2026-04-26 15:20 | 38.12426 | 12.89535 | 3083 ft | 230 kts | 109° |
| 2026-04-26 15:20 | 38.12268 | 12.91481 | 2894 ft | 218 kts | 85° |
| 2026-04-26 15:20 | 38.12454 | 12.93364 | 2622 ft | 212 kts | 75° |
| 2026-04-26 15:20 | 38.12895 | 12.95117 | 2358 ft | 204 kts | 67° |
| 2026-04-26 15:21 | 38.13432 | 12.96752 | 2087 ft | 197 kts | 64° |
| 2026-04-26 15:21 | 38.13965 | 12.98327 | 1813 ft | 192 kts | 63° |
| 2026-04-26 15:21 | 38.14475 | 12.99848 | 1569 ft | 181 kts | 65° |
| 2026-04-26 15:21 | 38.14945 | 13.01249 | 1369 ft | 162 kts | 65° |
| 2026-04-26 15:22 | 38.15367 | 13.02511 | 1134 ft | 147 kts | 64° |
| 2026-04-26 15:22 | 38.15772 | 13.03705 | 935 ft | 146 kts | 64° |
| 2026-04-26 15:22 | 38.16171 | 13.04878 | 745 ft | 148 kts | 63° |
| 2026-04-26 15:22 | 38.16582 | 13.06085 | 542 ft | 148 kts | 65° |
| 2026-04-26 15:23 | 38.16976 | 13.07267 | 328 ft | 141 kts | 65° |
| 2026-04-26 15:23 | 38.17348 | 13.08399 | 141 ft | 137 kts | 64° |
| 2026-04-26 15:23 | 38.17716 | 13.09490 | 49 ft | 121 kts | 67° |
| 2026-04-26 15:23 | 38.17962 | 13.10223 | 52 ft | 61 kts | 67° |
| 2026-04-26 15:24 | 38.18104 | 13.10650 | 52 ft | 38 kts | 67° |
| 2026-04-26 15:24 | 38.18161 | 13.10713 | 51 ft | 9 kts | 314° |
| 2026-04-26 15:24 | 38.18177 | 13.10631 | 50 ft | 11 kts | 279° |
| 2026-04-26 15:24 | 38.18190 | 13.10510 | 52 ft | 17 kts | 277° |
| 2026-04-26 15:25 | 38.18225 | 13.10386 | 52 ft | 14 kts | 324° |
| 2026-04-26 15:25 | 38.18282 | 13.10345 | 52 ft | 14 kts | 332° |
| 2026-04-26 15:25 | 38.18391 | 13.10291 | 52 ft | 9 kts | 9° |
| 2026-04-26 15:25 | 38.18424 | 13.10360 | 52 ft | 9 kts | 66° |
| 2026-04-26 15:26 | 38.18433 | 13.10387 | 52 ft | 0 kts | 66° |